Time;durP1;ratioP1;P1;durP2;ratioP2;P2;SDS_P1;SDS_P2;PMS_P1;PMS_P2;Temp;Humidity;BMP_temperature;BMP_pressure;BME280_temperature;BME280_humidity;BME280_pressure;Samples;Min_cycle;Max_cycle;Signal;HPM_P1;HPM_P2
2022/07/03 00:01:56;;;;;;;9.18;7.03;;;;;;;19.82;58.55;101621.88;5077099;28;20020;-66
2022/07/03 00:04:22;;;;;;;10.43;7.28;;;;;;;19.81;58.36;101626.69;5083946;28;20050;-65
2022/07/03 00:06:47;;;;;;;11.30;7.32;;;;;;;19.78;58.19;101629.25;5088241;28;20040;-66
2022/07/03 00:09:12;;;;;;;8.68;6.78;;;;;;;19.73;58.33;101630.16;5091544;28;20036;-66
2022/07/03 00:11:38;;;;;;;8.13;6.25;;;;;;;19.76;58.29;101626.72;5073241;28;20028;-66
2022/07/03 00:14:04;;;;;;;8.90;6.25;;;;;;;19.72;58.54;101630.41;5086298;28;20031;-63
2022/07/03 00:16:29;;;;;;;7.93;5.93;;;;;;;19.71;58.65;101638.03;5071035;28;20472;-63
2022/07/03 00:18:55;;;;;;;7.22;4.60;;;;;;;19.75;58.74;101650.38;5082490;28;20222;-63
2022/07/03 00:21:28;;;;;;;5.97;3.97;;;;;;;19.65;59.52;101655.25;5076372;28;20052;-63
2022/07/03 00:24:07;;;;;;;6.68;3.30;;;;;;;19.76;59.16;101663.34;5088634;28;20032;-63
2022/07/03 00:26:35;;;;;;;5.43;3.22;;;;;;;19.69;59.26;101657.22;5078733;28;20038;-63
2022/07/03 00:29:02;;;;;;;3.60;3.20;;;;;;;19.65;59.37;101658.94;5068666;28;20031;-63
2022/07/03 00:31:30;;;;;;;6.45;3.08;;;;;;;19.60;59.20;101659.78;5083809;28;20081;-63
2022/07/03 00:33:58;;;;;;;5.13;3.22;;;;;;;19.62;59.13;101670.78;5073890;28;20097;-63
2022/07/03 00:36:29;;;;;;;4.38;3.67;;;;;;;19.60;59.17;101673.03;5083453;28;20028;-63
2022/07/03 00:38:54;;;;;;;6.55;3.65;;;;;;;19.61;59.07;101674.72;5089633;28;20043;-63
2022/07/03 00:41:28;;;;;;;5.22;3.45;;;;;;;19.57;58.81;101670.78;5075173;28;20024;-63
2022/07/03 00:43:54;;;;;;;4.85;3.75;;;;;;;19.56;58.48;101667.13;5077130;28;20024;-63
2022/07/03 00:46:22;;;;;;;6.47;3.78;;;;;;;19.54;58.50;101669.41;5078669;28;20039;-63
2022/07/03 00:48:49;;;;;;;6.95;3.45;;;;;;;19.50;58.49;101670.31;5081205;28;20035;-63
2022/07/03 00:51:18;;;;;;;6.75;4.00;;;;;;;19.50;58.32;101675.94;5075762;28;20456;-63
2022/07/03 00:53:46;;;;;;;4.47;3.95;;;;;;;19.50;58.32;101670.31;5086847;28;20478;-63
2022/07/03 00:56:15;;;;;;;6.75;4.28;;;;;;;19.41;58.29;101661.63;5074442;28;20036;-63
2022/07/03 00:58:41;;;;;;;5.95;3.65;;;;;;;19.38;58.37;101659.41;5079237;28;20032;-63
2022/07/03 01:01:07;;;;;;;8.48;3.63;;;;;;;19.38;58.36;101663.06;5071742;28;20027;-63
2022/07/03 01:03:39;;;;;;;8.70;3.97;;;;;;;19.34;58.42;101661.97;5076102;28;20111;-63
2022/07/03 01:06:12;;;;;;;6.43;3.63;;;;;;;19.40;58.16;101662.75;5064527;28;20028;-63
2022/07/03 01:08:45;;;;;;;4.43;3.72;;;;;;;19.35;58.15;101660.81;5083478;28;20041;-63
2022/07/03 01:11:19;;;;;;;5.22;3.70;;;;;;;19.39;58.21;101658.28;5088421;28;20058;-63
2022/07/03 01:13:59;;;;;;;5.88;3.80;;;;;;;19.29;58.28;101661.97;5079461;28;20028;-63
2022/07/03 01:16:34;;;;;;;5.85;3.70;;;;;;;19.29;58.20;101661.16;5086910;28;20032;-63
2022/07/03 01:19:17;;;;;;;5.80;3.65;;;;;;;19.38;57.86;101659.41;5076768;28;20052;-63
2022/07/03 01:22:02;;;;;;;5.85;3.47;;;;;;;19.36;57.70;101665.31;5090747;28;20042;-63
2022/07/03 01:24:54;;;;;;;6.05;4.35;;;;;;;19.37;57.54;101671.78;5073406;28;20056;-63
2022/07/03 01:27:28;;;;;;;7.63;4.65;;;;;;;19.27;57.91;101675.53;5074810;28;20459;-63
2022/07/03 01:30:05;;;;;;;11.77;4.28;;;;;;;19.23;57.80;101668.78;5082738;28;20570;-63
2022/07/03 01:32:38;;;;;;;7.00;3.80;;;;;;;19.26;57.79;101668.22;5089940;28;20028;-63
2022/07/03 01:35:06;;;;;;;5.32;3.95;;;;;;;19.19;58.01;101669.69;5079931;28;20387;-63
2022/07/03 01:37:34;;;;;;;5.15;4.10;;;;;;;19.10;58.24;101659.03;5091115;28;20020;-63
2022/07/03 01:40:03;;;;;;;4.93;3.90;;;;;;;19.09;58.22;101656.50;5077737;28;20020;-63
2022/07/03 01:42:28;;;;;;;6.97;3.97;;;;;;;19.09;58.17;101650.88;5082780;28;20020;-63
2022/07/03 01:44:58;;;;;;;6.82;4.00;;;;;;;19.06;58.51;101654.25;5071595;28;20020;-63
2022/07/03 01:47:25;;;;;;;6.40;4.10;;;;;;;19.04;58.47;101662.16;5085519;28;20028;-66
2022/07/03 01:49:53;;;;;;;7.43;3.90;;;;;;;19.05;58.52;101659.03;5076913;28;20024;-66
2022/07/03 01:52:19;;;;;;;5.57;4.50;;;;;;;18.97;58.63;101662.47;5080645;28;20028;-66
2022/07/03 01:54:47;;;;;;;5.35;4.13;;;;;;;18.93;58.36;101667.00;5082568;28;20021;-65
2022/07/03 01:57:12;;;;;;;7.93;4.20;;;;;;;18.97;58.83;101661.63;5085883;28;20124;-66
2022/07/03 01:59:37;;;;;;;4.93;4.30;;;;;;;18.98;58.48;101661.38;5079306;28;20107;-66
2022/07/03 02:02:22;;;;;;;5.78;4.80;;;;;;;18.99;58.36;101663.03;5089076;28;20059;-66
2022/07/03 02:05:07;;;;;;;4.90;4.00;;;;;;;18.97;58.61;101656.00;5069933;28;20479;-66
2022/07/03 02:08:00;;;;;;;4.75;4.30;;;;;;;18.93;58.51;101650.13;5086176;28;20044;-66
2022/07/03 02:10:33;;;;;;;6.13;4.65;;;;;;;18.93;58.57;101643.66;5085527;28;20020;-66
2022/07/03 02:13:07;;;;;;;5.00;4.53;;;;;;;18.87;58.74;101648.47;5078492;28;20409;-66
2022/07/03 02:15:35;;;;;;;8.70;4.47;;;;;;;18.84;59.03;101646.25;5078979;28;20054;-66
2022/07/03 02:18:10;;;;;;;7.60;5.20;;;;;;;18.84;59.10;101640.63;5105511;28;20076;-66
2022/07/03 02:20:38;;;;;;;8.02;4.78;;;;;;;18.79;59.08;101641.50;5104597;28;20077;-66
2022/07/03 02:23:05;;;;;;;6.07;5.05;;;;;;;18.74;59.34;101635.03;5099288;28;20472;-66
2022/07/03 02:25:39;;;;;;;8.23;5.53;;;;;;;18.70;59.22;101639.53;5100730;28;20028;-65
2022/07/03 02:28:21;;;;;;;6.63;5.10;;;;;;;18.71;59.43;101641.25;5099945;28;20036;-66
2022/07/03 02:30:51;;;;;;;7.18;5.53;;;;;;;18.73;59.46;101641.78;5103499;28;20049;-65
2022/07/03 02:33:22;;;;;;;6.15;5.55;;;;;;;18.69;59.69;101644.31;5097490;28;20437;-65
2022/07/03 02:35:49;;;;;;;8.32;6.03;;;;;;;18.67;59.72;101649.41;5102753;28;20510;-65
2022/07/03 02:38:19;;;;;;;8.55;6.07;;;;;;;18.70;59.59;101650.78;5104111;28;20038;-66
2022/07/03 02:41:06;;;;;;;11.35;7.20;;;;;;;18.67;59.61;101651.34;5102658;28;20024;-66
2022/07/03 02:43:54;;;;;;;8.50;6.30;;;;;;;18.70;59.25;101646.00;5101389;28;20036;-66
2022/07/03 02:49:13;;;;;;;7.05;6.38;;;;;;;18.58;59.93;101645.47;5100949;28;20505;-66
2022/07/03 02:51:44;;;;;;;7.15;5.85;;;;;;;18.53;60.00;101635.09;5092641;28;20040;-66
2022/07/03 02:54:15;;;;;;;7.72;6.40;;;;;;;18.48;60.36;101642.72;5091764;28;20036;-66
2022/07/03 02:57:03;;;;;;;8.27;6.30;;;;;;;18.51;59.91;101642.13;5103190;28;20104;-66
2022/07/03 02:59:44;;;;;;;8.02;6.18;;;;;;;18.43;60.20;101637.97;5094840;28;20039;-66
2022/07/03 03:02:22;;;;;;;6.17;5.63;;;;;;;18.43;60.14;101637.09;5090950;28;20024;-66
2022/07/03 03:04:57;;;;;;;7.35;6.10;;;;;;;18.42;60.23;101638.25;5112480;28;20063;-66
2022/07/03 03:07:33;;;;;;;7.60;5.97;;;;;;;18.36;60.34;101640.25;5096812;28;20047;-66
2022/07/03 03:09:58;;;;;;;8.27;5.82;;;;;;;18.26;60.32;101646.72;5082860;28;20043;-66
2022/07/03 03:12:32;;;;;;;7.97;6.45;;;;;;;18.27;60.27;101642.78;5108891;28;20011;-66
2022/07/03 03:15:01;;;;;;;6.68;5.22;;;;;;;18.25;60.30;101650.66;5106614;28;20439;-65
2022/07/03 03:17:33;;;;;;;7.07;6.22;;;;;;;18.19;60.29;101648.16;5096451;28;20031;-66
2022/07/03 03:20:00;;;;;;;7.82;6.05;;;;;;;18.19;60.53;101651.78;5109610;28;20034;-66
2022/07/03 03:23:03;;;;;;;7.68;6.10;;;;;;;18.20;60.07;101659.13;5103510;28;20028;-66
2022/07/03 03:25:29;;;;;;;6.20;5.32;;;;;;;18.13;60.83;101647.34;5101117;28;20118;-66
2022/07/03 03:27:55;;;;;;;8.05;5.97;;;;;;;18.15;60.78;101647.88;5078221;28;20110;-65
2022/07/03 03:30:20;;;;;;;6.57;5.82;;;;;;;18.11;61.09;101660.81;5105459;28;20378;-66
2022/07/03 03:32:46;;;;;;;7.97;6.13;;;;;;;18.11;60.64;101655.19;5102807;28;20028;-66
2022/07/03 03:35:11;;;;;;;8.32;5.88;;;;;;;18.12;60.81;101662.50;5099560;28;20021;-66
2022/07/03 03:37:37;;;;;;;10.55;5.57;;;;;;;18.05;60.67;101665.59;5092602;28;20032;-66
2022/07/03 03:40:03;;;;;;;6.03;5.43;;;;;;;18.03;60.95;101672.63;5092258;28;20034;-66
2022/07/03 03:42:29;;;;;;;8.30;5.45;;;;;;;18.04;60.90;101663.09;5097239;28;20040;-65
2022/07/03 03:44:54;;;;;;;7.85;5.32;;;;;;;18.07;60.21;101662.50;5094679;28;20451;-65
2022/07/03 03:47:19;;;;;;;5.82;4.32;;;;;;;18.04;60.68;101660.28;5090633;28;20039;-66
2022/07/03 03:49:45;;;;;;;10.57;5.15;;;;;;;18.10;60.17;101670.38;5088085;28;20024;-66
2022/07/03 03:52:10;;;;;;;5.43;4.45;;;;;;;18.09;60.10;101663.91;5087746;28;20518;-66
2022/07/03 03:54:36;;;;;;;6.53;4.70;;;;;;;18.08;60.19;101658.59;5097889;28;20031;-66
2022/07/03 03:57:21;;;;;;;8.65;4.40;;;;;;;18.19;59.86;101654.59;5088758;28;20034;-66
2022/07/03 03:59:47;;;;;;;10.35;4.55;;;;;;;18.08;60.06;101659.44;5090266;28;20027;-66
2022/07/03 04:02:13;;;;;;;7.95;4.22;;;;;;;18.09;60.17;101663.06;5096195;28;20020;-63
2022/07/03 04:04:38;;;;;;;6.20;4.28;;;;;;;18.04;60.37;101663.09;5105170;28;20027;-63
2022/07/03 04:07:04;;;;;;;8.18;4.60;;;;;;;18.03;60.33;101667.84;5084821;28;20074;-63
2022/07/03 04:09:29;;;;;;;6.55;4.18;;;;;;;18.04;60.20;101661.13;5096793;28;20548;-63
2022/07/03 04:11:55;;;;;;;9.77;4.25;;;;;;;18.06;59.83;101660.81;5107623;28;20048;-63
2022/07/03 04:14:20;;;;;;;7.40;4.20;;;;;;;18.05;59.93;101664.78;5090547;28;20070;-63
2022/07/03 04:16:45;;;;;;;6.60;4.32;;;;;;;18.08;59.84;101667.03;5101138;28;20027;-63
2022/07/03 04:19:10;;;;;;;7.00;4.15;;;;;;;18.04;59.29;101663.09;5107496;28;20038;-63
2022/07/03 04:21:36;;;;;;;5.03;4.53;;;;;;;17.95;59.82;101661.97;5107962;28;20024;-63
2022/07/03 04:24:01;;;;;;;8.95;4.45;;;;;;;17.99;59.57;101655.50;5095406;28;20147;-63
2022/07/03 04:26:26;;;;;;;6.05;4.20;;;;;;;17.94;59.53;101657.47;5102069;28;20024;-63
2022/07/03 04:28:52;;;;;;;6.07;3.88;;;;;;;17.99;59.46;101668.69;5101038;28;20032;-63
2022/07/03 04:31:17;;;;;;;4.50;3.80;;;;;;;18.00;59.10;101665.63;5092814;28;20020;-63
2022/07/03 04:33:42;;;;;;;6.25;4.13;;;;;;;17.98;59.17;101665.06;5097734;28;20032;-63
2022/07/03 04:36:08;;;;;;;5.40;4.65;;;;;;;17.94;59.04;101672.34;5108315;28;20356;-63
2022/07/03 04:38:33;;;;;;;5.47;4.32;;;;;;;17.98;59.15;101669.84;5100067;28;20483;-63
2022/07/03 04:40:58;;;;;;;7.72;4.55;;;;;;;17.98;59.30;101667.03;5101669;28;20032;-63
2022/07/03 04:43:24;;;;;;;5.45;4.82;;;;;;;18.01;59.70;101680.50;5083364;28;20024;-63
2022/07/03 04:45:49;;;;;;;4.88;4.22;;;;;;;18.09;59.04;101679.94;5106841;28;20112;-63
2022/07/03 04:48:14;;;;;;;5.93;4.40;;;;;;;18.12;59.13;101685.00;5088234;28;20032;-63
2022/07/03 04:50:39;;;;;;;7.32;4.55;;;;;;;18.08;59.01;101683.88;5094117;28;20084;-63
2022/07/03 04:53:05;;;;;;;6.18;5.00;;;;;;;18.01;59.29;101683.31;5103638;28;20087;-63
2022/07/03 04:55:30;;;;;;;6.78;4.88;;;;;;;18.10;59.41;101688.06;5093809;28;20020;-63
2022/07/03 04:57:55;;;;;;;7.57;4.40;;;;;;;18.09;59.04;101682.75;5106720;28;20031;-63
2022/07/03 05:00:21;;;;;;;5.20;4.57;;;;;;;18.13;58.86;101687.50;5089321;28;20475;-62
2022/07/03 05:02:46;;;;;;;7.57;4.60;;;;;;;18.10;59.05;101688.06;5099395;28;20114;-64
2022/07/03 05:05:11;;;;;;;10.02;4.82;;;;;;;18.18;58.74;101692.28;5109915;28;20421;-64
2022/07/03 05:07:36;;;;;;;5.30;4.00;;;;;;;18.18;59.04;101688.63;5089678;28;20104;-64
2022/07/03 05:10:02;;;;;;;5.28;4.43;;;;;;;18.15;59.10;101684.41;5107235;28;20383;-64
2022/07/03 05:12:27;;;;;;;7.45;4.40;;;;;;;18.20;58.82;101689.19;5101551;28;20032;-64
2022/07/03 05:14:52;;;;;;;7.07;4.15;;;;;;;18.24;58.62;101685.53;5090668;28;20104;-63
2022/07/03 05:17:19;;;;;;;7.93;4.70;;;;;;;18.24;58.99;101690.31;5101369;28;20043;-64
2022/07/03 05:19:44;;;;;;;6.03;4.30;;;;;;;18.22;58.71;101690.56;5092330;28;20028;-64
2022/07/03 05:22:10;;;;;;;6.97;4.70;;;;;;;18.19;58.75;101702.38;5094143;28;20475;-64
2022/07/03 05:24:35;;;;;;;4.65;4.15;;;;;;;18.20;58.91;101698.47;5101824;28;20031;-64
2022/07/03 05:27:00;;;;;;;6.97;4.10;;;;;;;18.19;58.95;101696.75;5092234;28;20042;-64
2022/07/03 05:29:26;;;;;;;6.97;3.90;;;;;;;18.15;59.21;101690.84;5098805;28;20036;-64
2022/07/03 05:31:51;;;;;;;6.18;4.30;;;;;;;18.26;58.98;101696.47;5100132;28;20030;-64
2022/07/03 05:34:16;;;;;;;5.63;4.30;;;;;;;18.24;59.38;101699.56;5096544;28;20170;-64
2022/07/03 05:36:42;;;;;;;6.40;4.57;;;;;;;18.21;59.12;101702.94;5098520;28;20038;-64
2022/07/03 05:39:49;;;;;;;5.55;4.30;;;;;;;18.34;58.85;101707.13;5104239;28;20027;-64
2022/07/03 05:41:55;;;;;;;5.78;4.03;;;;;;;18.41;58.81;101713.28;5066672;28;20073;-64
2022/07/03 05:44:21;;;;;;;4.50;4.03;;;;;;;18.49;58.51;101709.91;5096646;28;20023;-64
2022/07/03 05:46:46;;;;;;;4.70;3.92;;;;;;;18.54;58.37;101707.06;5108631;28;20036;-64
2022/07/03 05:49:11;;;;;;;7.78;4.03;;;;;;;18.60;58.46;101705.09;5111659;28;20038;-64
2022/07/03 05:51:36;;;;;;;5.57;3.88;;;;;;;18.63;58.51;101701.72;5096061;28;20063;-64
2022/07/03 05:54:02;;;;;;;7.03;4.20;;;;;;;18.70;58.58;101702.25;5098076;28;20137;-64
2022/07/03 05:56:27;;;;;;;12.52;3.97;;;;;;;18.73;58.17;101703.66;5096611;28;20065;-64
2022/07/03 05:58:52;;;;;;;5.88;4.00;;;;;;;18.76;58.47;101701.13;5097553;28;20502;-64
2022/07/03 06:01:18;;;;;;;7.18;4.13;;;;;;;18.84;57.76;101708.97;5104392;28;20027;-64
2022/07/03 06:03:43;;;;;;;7.30;3.83;;;;;;;18.90;57.46;101712.56;5100517;28;20438;-64
2022/07/03 06:06:08;;;;;;;5.35;3.97;;;;;;;18.97;57.65;101707.50;5101153;28;20510;-64
2022/07/03 06:08:33;;;;;;;6.53;4.25;;;;;;;18.95;57.95;101717.38;5105072;28;20044;-64
2022/07/03 06:10:59;;;;;;;8.32;4.30;;;;;;;19.01;57.91;101719.84;5104894;28;20024;-64
2022/07/03 06:13:24;;;;;;;7.80;4.43;;;;;;;18.99;57.99;101712.84;5097100;28;20023;-65
2022/07/03 06:15:49;;;;;;;8.02;4.25;;;;;;;19.12;57.81;101712.19;5102574;28;20035;-64
2022/07/03 06:18:14;;;;;;;4.82;3.75;;;;;;;19.13;57.78;101719.50;5106757;28;20020;-64
2022/07/03 06:20:40;;;;;;;7.03;4.30;;;;;;;19.15;58.31;101717.25;5102685;28;20118;-64
2022/07/03 06:23:05;;;;;;;4.93;4.05;;;;;;;19.19;58.18;101718.34;5100401;28;20034;-64
2022/07/03 06:25:30;;;;;;;6.82;4.20;;;;;;;19.25;57.99;101720.00;5106307;28;20379;-64
2022/07/03 06:27:55;;;;;;;7.57;4.00;;;;;;;19.30;58.61;101716.34;5094832;28;20066;-64
2022/07/03 06:30:21;;;;;;;7.13;3.75;;;;;;;19.39;58.13;101720.19;5106536;28;20028;-64
2022/07/03 06:32:46;;;;;;;8.68;3.85;;;;;;;19.42;58.42;101718.78;5101155;28;20028;-64
2022/07/03 06:35:11;;;;;;;5.47;3.50;;;;;;;19.50;58.24;101721.81;5107356;28;20035;-64
2022/07/03 06:37:37;;;;;;;8.85;3.67;;;;;;;19.53;58.30;101714.75;5108301;28;20031;-64
2022/07/03 06:40:02;;;;;;;7.38;3.80;;;;;;;19.54;58.34;101719.25;5095620;28;20024;-64
2022/07/03 06:42:28;;;;;;;6.03;3.10;;;;;;;19.65;57.95;101718.09;5113572;28;20034;-64
2022/07/03 06:44:53;;;;;;;7.18;3.25;;;;;;;19.69;58.20;101732.41;5107216;28;20051;-64
2022/07/03 06:47:19;;;;;;;8.60;3.47;;;;;;;19.74;57.96;101724.78;5097883;28;20105;-64
2022/07/03 06:49:44;;;;;;;6.10;3.28;;;;;;;19.80;57.73;101717.94;5109903;28;20436;-64
2022/07/03 06:52:11;;;;;;;6.72;3.58;;;;;;;19.81;57.82;101719.66;5082079;28;20111;-64
2022/07/03 06:54:43;;;;;;;10.27;3.78;;;;;;;19.80;57.65;101720.75;5101363;28;20473;-64
2022/07/03 06:57:08;;;;;;;8.95;3.20;;;;;;;19.83;57.58;101719.34;5094281;28;20050;-64
2022/07/03 06:59:33;;;;;;;6.07;3.67;;;;;;;19.91;57.38;101731.97;5108485;28;20553;-64
2022/07/03 07:02:02;;;;;;;10.30;3.33;;;;;;;20.00;57.24;101724.53;5094515;28;20031;-64
2022/07/03 07:04:27;;;;;;;7.60;3.10;;;;;;;20.02;56.96;101722.28;5093016;28;20111;-64
2022/07/03 07:06:53;;;;;;;4.53;3.28;;;;;;;19.96;56.97;101724.28;5103851;28;20863;-64
2022/07/03 07:09:18;;;;;;;5.03;3.22;;;;;;;19.95;57.38;101730.22;5097814;28;20051;-64
2022/07/03 07:11:43;;;;;;;5.95;3.63;;;;;;;20.04;57.14;101737.78;5103590;28;20112;-65
2022/07/03 07:14:09;;;;;;;7.03;3.95;;;;;;;20.04;57.11;101725.63;5105832;28;20023;-65
2022/07/03 07:16:34;;;;;;;4.97;3.42;;;;;;;20.17;56.96;101722.13;5102541;28;20028;-64
2022/07/03 07:19:00;;;;;;;10.80;3.70;;;;;;;20.21;56.73;101725.22;5104285;28;20050;-64
2022/07/03 07:21:25;;;;;;;5.30;3.42;;;;;;;20.23;56.24;101720.94;5096306;28;20036;-64
2022/07/03 07:23:50;;;;;;;5.22;3.17;;;;;;;20.28;56.43;101720.91;5098592;28;20532;-64
2022/07/03 07:26:18;;;;;;;6.28;2.95;;;;;;;20.40;56.60;101728.13;5103136;28;20376;-64
2022/07/03 07:28:43;;;;;;;6.22;3.38;;;;;;;20.46;56.64;101724.09;5095843;28;20468;-64
2022/07/03 07:31:08;;;;;;;6.45;3.00;;;;;;;20.51;56.27;101736.19;5091112;28;20058;-64
2022/07/03 07:33:34;;;;;;;5.70;3.25;;;;;;;20.57;56.47;101736.97;5093537;28;20514;-64
2022/07/03 07:35:59;;;;;;;8.75;2.78;;;;;;;20.58;55.98;101733.84;5097943;28;20072;-64
2022/07/03 07:38:24;;;;;;;7.57;3.00;;;;;;;20.69;55.88;101739.38;5091257;28;20542;-64
2022/07/03 07:40:49;;;;;;;6.07;3.58;;;;;;;20.65;55.71;101736.31;5099717;28;20036;-66
2022/07/03 07:43:15;;;;;;;6.35;3.10;;;;;;;20.77;55.53;101745.19;5093380;28;20105;-65
2022/07/03 07:45:40;;;;;;;7.78;3.03;;;;;;;20.85;56.05;101740.88;5096715;28;20028;-65
2022/07/03 07:48:05;;;;;;;6.20;2.80;;;;;;;20.90;55.21;101737.16;5096371;28;20043;-65
2022/07/03 07:50:31;;;;;;;4.90;2.70;;;;;;;20.92;54.60;101740.53;5100837;28;20024;-66
2022/07/03 07:52:56;;;;;;;4.70;2.17;;;;;;;21.04;54.75;101738.09;5087513;28;20111;-66
2022/07/03 07:55:22;;;;;;;7.00;2.75;;;;;;;21.13;54.50;101739.09;5089923;28;20024;-65
2022/07/03 07:57:48;;;;;;;5.43;1.73;;;;;;;21.28;54.20;101736.06;5107498;28;20030;-66
2022/07/03 08:00:17;;;;;;;97.97;8.43;;;;;;;21.40;53.99;101743.28;5093783;28;20387;-66
2022/07/03 08:05:35;;;;;;;188.52;16.23;;;;;;;21.62;53.30;101751.16;5095250;28;20066;-67
2022/07/03 08:08:01;;;;;;;86.82;8.57;;;;;;;21.67;53.07;101746.25;5079657;28;20462;-66
2022/07/03 08:10:26;;;;;;;54.53;7.90;;;;;;;21.76;53.49;101752.88;5095797;28;20143;-67
2022/07/03 08:12:51;;;;;;;66.53;6.60;;;;;;;21.83;53.04;101740.38;5086803;28;20110;-67
2022/07/03 08:15:16;;;;;;;42.03;5.15;;;;;;;21.91;52.97;101742.47;5092491;28;20032;-67
2022/07/03 08:17:42;;;;;;;24.90;4.40;;;;;;;21.91;53.17;101745.31;5098922;28;20023;-68
2022/07/03 08:20:08;;;;;;;39.17;5.32;;;;;;;21.97;53.39;101744.94;5086412;28;20404;-68
2022/07/03 08:22:34;;;;;;;36.22;4.63;;;;;;;22.03;52.78;101743.69;5089001;28;20039;-69
2022/07/03 08:24:59;;;;;;;23.50;3.80;;;;;;;22.10;52.78;101751.78;5086582;28;20509;-68
2022/07/03 08:27:24;;;;;;;24.42;3.63;;;;;;;22.17;52.87;101742.94;5093977;28;20040;-69
2022/07/03 08:29:49;;;;;;;19.65;4.03;;;;;;;22.17;52.79;101742.94;5090150;28;20439;-68
2022/07/03 08:32:14;;;;;;;21.00;3.83;;;;;;;22.26;52.87;101756.03;5102189;28;20023;-65
2022/07/03 08:34:40;;;;;;;16.25;3.60;;;;;;;22.33;52.93;101746.31;5092034;28;20115;-68
2022/07/03 08:37:05;;;;;;;14.35;3.30;;;;;;;22.28;53.38;101745.25;5089347;28;20040;-69
2022/07/03 08:39:30;;;;;;;11.95;3.85;;;;;;;22.36;53.45;101740.00;5102039;28;20020;-66
2022/07/03 08:41:57;;;;;;;8.63;3.35;;;;;;;22.39;54.08;101743.06;5094832;28;20543;-70
2022/07/03 08:44:24;;;;;;;14.43;3.00;;;;;;;22.45;53.22;101732.50;5094938;28;20024;-71
2022/07/03 08:46:50;;;;;;;12.48;2.88;;;;;;;22.52;52.84;101733.78;5088248;28;20027;-68
2022/07/03 08:49:18;;;;;;;7.80;2.70;;;;;;;22.55;52.70;101744.44;5089159;28;20064;-68
2022/07/03 08:51:45;;;;;;;15.25;2.38;;;;;;;22.66;52.46;101739.44;5089888;28;20085;-67
2022/07/03 08:54:11;;;;;;;8.40;2.55;;;;;;;22.63;51.48;101740.06;5087173;28;20074;-68
2022/07/03 08:56:37;;;;;;;7.60;2.47;;;;;;;22.70;51.33;101740.47;5085572;28;20031;-68
2022/07/03 08:59:05;;;;;;;10.02;2.20;;;;;;;22.78;51.65;101734.09;5089477;28;20036;-65
2022/07/03 09:01:32;;;;;;;8.65;2.13;;;;;;;22.76;51.54;101739.25;5089454;28;20063;-68
2022/07/03 09:03:58;;;;;;;6.50;2.28;;;;;;;22.78;51.18;101734.09;5088084;28;20114;-68
2022/07/03 09:06:24;;;;;;;7.70;2.30;;;;;;;22.79;50.99;101738.63;5087548;28;20028;-69
2022/07/03 09:08:50;;;;;;;4.40;1.65;;;;;;;22.81;50.48;101735.47;5085282;28;20055;-68
2022/07/03 09:11:15;;;;;;;5.07;1.92;;;;;;;22.85;50.18;101735.66;5085814;28;20044;-68
2022/07/03 09:13:41;;;;;;;4.68;2.58;;;;;;;22.81;49.91;101729.78;5090020;28;20121;-68
2022/07/03 09:16:14;;;;;;;6.32;2.00;;;;;;;22.86;50.56;101734.50;5091642;28;20024;-68
2022/07/03 09:18:41;;;;;;;4.55;2.63;;;;;;;22.84;51.18;101734.84;5098708;28;20499;-68
2022/07/03 09:21:11;;;;;;;4.85;2.67;;;;;;;22.86;51.66;101738.19;5096146;28;20082;-68
2022/07/03 09:23:41;;;;;;;5.15;2.60;;;;;;;22.87;51.79;101734.22;5103724;28;20739;-68
2022/07/03 09:26:13;;;;;;;4.00;2.53;;;;;;;22.94;50.92;101750.78;5090999;28;20019;-68
2022/07/03 09:28:52;;;;;;;6.65;2.80;;;;;;;22.97;50.57;101738.84;5101208;28;20410;-68
2022/07/03 09:31:18;;;;;;;5.32;2.08;;;;;;;22.96;50.34;101740.00;5103984;28;20028;-69
2022/07/03 09:33:52;;;;;;;4.10;1.90;;;;;;;22.97;49.60;101748.16;5106559;28;20024;-69
2022/07/03 09:36:20;;;;;;;4.35;2.10;;;;;;;22.94;49.38;101747.97;5102850;28;20035;-69
2022/07/03 09:38:45;;;;;;;6.60;2.17;;;;;;;23.00;50.70;101750.38;5102726;28;20023;-69
2022/07/03 09:41:11;;;;;;;9.60;2.05;;;;;;;23.08;50.81;101759.28;5110295;28;20026;-68
2022/07/03 09:43:41;;;;;;;5.55;2.88;;;;;;;23.02;50.92;101758.53;5111074;28;20032;-68
2022/07/03 09:46:07;;;;;;;4.35;2.45;;;;;;;23.03;51.36;101760.25;5099312;28;20048;-70
2022/07/03 09:48:35;;;;;;;11.25;2.05;;;;;;;23.05;51.15;101762.75;5103098;28;20124;-68
2022/07/03 09:51:11;;;;;;;5.65;2.63;;;;;;;22.97;51.08;101767.16;5092932;28;20031;-68
2022/07/03 09:54:03;;;;;;;6.10;2.33;;;;;;;22.96;51.03;101757.00;5106749;28;20089;-68
2022/07/03 09:56:35;;;;;;;5.43;3.17;;;;;;;22.91;50.22;101757.94;5090793;28;20127;-67
2022/07/03 09:59:08;;;;;;;4.63;3.25;;;;;;;22.99;50.81;101757.19;5098587;28;20099;-67
2022/07/03 10:01:36;;;;;;;4.68;2.67;;;;;;;23.00;50.29;101760.88;5107926;28;20027;-69
2022/07/03 10:04:21;;;;;;;5.90;2.60;;;;;;;23.07;50.91;101755.63;5088496;28;20028;-68
2022/07/03 10:07:00;;;;;;;5.90;2.10;;;;;;;22.99;49.83;101756.34;5094284;28;20105;-69
2022/07/03 10:09:31;;;;;;;3.88;1.60;;;;;;;23.02;50.71;101756.53;5099208;28;20118;-69
2022/07/03 10:11:58;;;;;;;5.20;2.33;;;;;;;22.98;50.04;101749.00;5092678;28;20082;-70
2022/07/03 10:14:25;;;;;;;4.55;1.92;;;;;;;22.95;49.16;101750.50;5088983;28;20031;-68
2022/07/03 10:16:51;;;;;;;2.35;1.55;;;;;;;23.00;49.22;101752.38;5102113;28;20527;-68
2022/07/03 10:19:19;;;;;;;5.78;2.25;;;;;;;22.95;49.57;101763.78;5100270;28;20069;-68
2022/07/03 10:21:52;;;;;;;3.72;1.50;;;;;;;22.98;50.10;101758.31;5109190;28;20035;-71
2022/07/03 10:24:18;;;;;;;2.83;1.60;;;;;;;22.94;50.13;101762.09;5097250;28;20024;-69
2022/07/03 10:26:44;;;;;;;3.55;1.38;;;;;;;22.95;50.52;101758.97;5103000;28;20027;-67
2022/07/03 10:29:10;;;;;;;4.68;2.20;;;;;;;23.00;49.83;101767.38;5088165;28;20034;-68
2022/07/03 10:31:38;;;;;;;4.72;1.98;;;;;;;23.01;49.84;101762.53;5085178;28;20028;-68
2022/07/03 10:34:05;;;;;;;3.80;1.70;;;;;;;22.98;49.90;101769.66;5090566;28;20513;-69
2022/07/03 10:36:33;;;;;;;4.53;2.00;;;;;;;22.99;50.73;101771.34;5091263;28;20037;-69
2022/07/03 10:39:05;;;;;;;3.95;1.80;;;;;;;22.99;49.28;101768.53;5086629;28;20395;-68
2022/07/03 10:47:04;;;;;;;3.13;1.40;;;;;;;23.00;47.48;101769.34;5085194;28;20153;-66
2022/07/03 10:49:30;;;;;;;4.65;1.30;;;;;;;22.98;48.14;101777.31;5099439;28;20073;-71
2022/07/03 10:52:03;;;;;;;3.90;1.40;;;;;;;22.93;49.12;101774.59;5090682;28;20286;-71
2022/07/03 10:54:33;;;;;;;2.28;1.42;;;;;;;22.91;48.42;101774.91;5090576;28;20069;-69
2022/07/03 10:56:59;;;;;;;4.82;1.70;;;;;;;22.94;49.55;101771.44;5091259;28;20200;-67
2022/07/03 10:59:43;;;;;;;4.47;2.03;;;;;;;22.90;49.17;101775.19;5089510;28;20525;-68
2022/07/03 11:02:22;;;;;;;7.55;5.88;;;;;;;22.94;49.24;101767.78;5083182;28;20036;-73
2022/07/03 11:04:59;;;;;;;8.35;5.32;;;;;;;22.94;49.34;101774.28;5092284;28;20028;-72
2022/07/03 11:07:28;;;;;;;8.05;5.18;;;;;;;22.91;49.07;101780.59;5094509;28;20078;-69
2022/07/03 11:10:05;;;;;;;10.10;6.15;;;;;;;22.94;49.30;101768.59;5094201;28;20084;-71
2022/07/03 11:12:53;;;;;;;6.95;4.40;;;;;;;23.02;49.16;101764.19;5087549;28;20063;-70
2022/07/03 11:15:33;;;;;;;4.25;2.70;;;;;;;23.17;48.84;101766.72;5089491;28;20032;-70
2022/07/03 11:18:04;;;;;;;3.35;2.38;;;;;;;23.25;47.33;101753.78;5084700;28;20762;-71
2022/07/03 11:20:30;;;;;;;3.33;3.03;;;;;;;23.32;46.98;101754.22;5088167;28;20028;-71
2022/07/03 11:23:05;;;;;;;3.33;1.75;;;;;;;23.27;46.90;101755.16;5088106;28;20024;-69
2022/07/03 11:40:13;;;;;;;5.82;2.15;;;;;;;23.58;47.81;101747.94;5088435;28;20121;-72
2022/07/03 12:20:57;;;;;;;;;;;;;;;;;;;;;
2022/07/03 12:41:11;;;;;;;3.65;0.90;;;;;;;23.49;45.42;101747.88;4890071;29;20625;-71
2022/07/03 13:47:37;;;;;;;;;;;;;;;;;;;;;
2022/07/03 14:50:22;;;;;;;3.30;1.10;;;;;;;23.62;43.51;101782.97;4927769;29;20066;-69
2022/07/03 14:56:40;;;;;;;2.28;1.38;;;;;;;23.63;43.24;101785.53;4896129;29;20047;-69
2022/07/03 15:13:33;;;;;;;3.00;1.10;;;;;;;23.44;43.89;101797.00;4949681;28;20267;-67
2022/07/03 15:34:13;;;;;;;;;;;;;;;;;;;;;
2022/07/03 15:37:11;;;;;;;5.22;1.10;;;;;;;23.49;43.76;101796.88;4940888;29;20069;-68
2022/07/03 15:54:11;;;;;;;4.47;1.10;;;;;;;23.35;43.95;101800.91;4985063;28;20033;-72